NCAR-RAP Real-Time Weather Data

Output produced by METARs form (17 September 2019  17:22 UTC)
found at http://weather.rap.ucar.edu/surface/
 
KDBQ 171713Z 12007KT 5SM BR OVC006 20/19 A3016 RMK AO2 CIG 004V009 T02000189
KDBQ 171653Z 14010KT 4SM BR OVC004 19/18 A3016 RMK AO2 SLP210 T01940183
KDBQ 171553Z 15007KT 2SM BR OVC002 18/18 A3016 RMK AO2 SLP212 T01830183
KDBQ 171453Z 16008KT 1SM R36/3000V5000FT BR OVC002 18/18 A3016 RMK AO2 SLP211 T01780178 50002
KDBQ 171421Z 16009KT 1/2SM R36/2400V3500FT FG VV002 17/17 A3016 RMK AO2 T01720172
KDBQ 171407Z 15008KT 1/4SM R36/2000V2400FT FG VV002 17/17 A3016 RMK AO2 T01720172
KDBQ 171353Z 14007KT 1/4SM R36/1800V2200FT FG VV002 17/17 A3016 RMK AO2 SLP211 T01670167
KDBQ 171326Z 14008KT 1/4SM R36/1400V2200FT FG VV002 16/16 A3016 RMK AO2 T01610161
KDBQ 171317Z 15006KT 3/4SM R36/2200VP6000FT BR OVC002 16/16 A3016 RMK AO2 T01610161
KDBQ 171253Z 17006KT 2SM BR BKN002 16/16 A3016 RMK AO2 SLP211 T01560156
KDBQ 171241Z 16007KT 2 1/2SM BR FEW002 16/16 A3016 RMK AO2 T01560156
KDBQ 171234Z 14009KT 2 1/2SM BR CLR 16/16 A3016 RMK AO2 T01560156
KDBQ 171153Z 15007KT 5SM BR CLR 16/16 A3015 RMK AO2 SLP207 T01610156 10189 20161 53011
KDBQ 171053Z 16005KT 9SM CLR 17/16 A3014 RMK AO2 SLP200 T01720161
KDBQ 170953Z AUTO 15007KT 10SM CLR 18/16 A3012 RMK AO2 SLP194 T01780161
KDBQ 170853Z AUTO 16004KT 7SM CLR 18/17 A3012 RMK AO2 SLP194 T01830172 58003
KDBQ 170753Z AUTO 14005KT 8SM CLR 18/18 A3012 RMK AO2 SLP195 T01830178
KDBQ 170653Z AUTO 13004KT 10SM CLR 19/18 A3013 RMK AO2 SLP198 T01890183
KDBQ 170553Z AUTO 13004KT 10SM CLR 18/17 A3013 RMK AO2 SLP197 T01780172 10233 20178 402720144 51007
KDBQ 170453Z AUTO 16006KT 10SM CLR 19/18 A3012 RMK AO2 SLP195 T01940183
KDBQ 170353Z AUTO 00000KT 10SM CLR 19/19 A3012 RMK AO2 SLP195 T01940189
KDBQ 170253Z AUTO 17004KT 10SM CLR 19/19 A3011 RMK AO2 SLP191 T01940189 53004
KDBQ 170053Z 12008KT 10SM CLR 23/19 A3010 RMK AO2 SLP188 T02280194
KDBQ 162353Z 12006KT 10SM CLR 23/19 A3010 RMK AO2 SLP188 T02330194 10272 20233 57003
KDBQ 162253Z 15005KT 10SM CLR 26/19 A3010 RMK AO2 SLP189 T02560194
KDBQ 162153Z 16005KT 10SM CLR 26/20 A3010 RMK AO2 SLP188 T02610200
KDBQ 162053Z 12006KT 10SM CLR 27/19 A3011 RMK AO2 SLP189 T02720189 57010